^^
nws-alerts.php - 1.15 - 19-Aug-2013 - NWS Public Alerts
Station Historical Data
 
Daily Summary for June 21, 2018 Units:  English    Metric   Both
« Previous Day
Next Day »
Daily Weekly Monthly Yearly Custom
  Current: High: Low: Average:
Temperature: 75.4 °F 78.4 °F 75.3 °F 76.8 °F
Dew Point: 73.2 °F 74.3 °F 72.8 °F 73.5 °F
Humidity: 93% 93% 86% 90%
Wind Speed: 0.0mph 0.0mph 0.0mph 0mph
Wind Gust: 0.0mph 0.0mph - -
WindCalm - - North
Pressure: 29.92 in 29.95 in 29.90 in -
Precipitation: 0.00 in      
Historical Graphs
 
 
Tabular Data for June 21, 2018
Time Temperature Dew Point Pressure Wind Wind Speed Wind Gust Humidity Rainfall Rate (Hourly) Conditions
00:04 78.4 °F 73.9 °F 29.95 in Calm     86% 0.00 in 0.00 W/m2
00:09 78.3 °F 73.8 °F 29.95 in Calm     86% 0.00 in 0.00 W/m2
00:14 78.1 °F 73.6 °F 29.95 in Calm     86% 0.00 in 0.00 W/m2
00:19 78.0 °F 73.5 °F 29.94 in Calm     86% 0.00 in 0.00 W/m2
00:24 78.1 °F 73.9 °F 29.94 in Calm     87% 0.00 in 0.00 W/m2
00:29 78.1 °F 73.9 °F 29.94 in Calm     87% 0.00 in 0.00 W/m2
00:34 78.2 °F 74.0 °F 29.94 in Calm     87% 0.00 in 0.00 W/m2
00:39 78.0 °F 73.5 °F 29.94 in Calm     86% 0.00 in 0.00 W/m2
00:44 77.9 °F 73.7 °F 29.94 in Calm     87% 0.00 in 0.00 W/m2
00:49 78.1 °F 73.9 °F 29.94 in Calm     87% 0.00 in 0.00 W/m2
00:54 77.9 °F 73.7 °F 29.94 in Calm     87% 0.00 in 0.00 W/m2
00:59 78.0 °F 73.8 °F 29.93 in Calm     87% 0.00 in 0.00 W/m2
01:04 77.9 °F 73.7 °F 29.93 in Calm     87% 0.00 in 0.00 W/m2
01:09 77.8 °F 73.6 °F 29.93 in Calm     87% 0.00 in 0.00 W/m2
01:14 77.8 °F 73.6 °F 29.93 in Calm     87% 0.00 in 0.00 W/m2
01:19 77.7 °F 73.5 °F 29.93 in Calm     87% 0.00 in 0.00 W/m2
01:24 77.6 °F 73.4 °F 29.92 in Calm     87% 0.00 in 0.00 W/m2
01:29 77.5 °F 73.7 °F 29.92 in Calm     88% 0.00 in 0.00 W/m2
01:34 77.3 °F 73.5 °F 29.92 in Calm     88% 0.00 in 0.00 W/m2
01:39 77.3 °F 73.8 °F 29.92 in Calm     89% 0.00 in 0.00 W/m2
01:44 77.3 °F 73.5 °F 29.92 in Calm     88% 0.00 in 0.00 W/m2
01:49 77.3 °F 73.8 °F 29.92 in Calm     89% 0.00 in 0.00 W/m2
01:54 77.1 °F 73.6 °F 29.92 in Calm     89% 0.00 in 0.00 W/m2
01:59 76.9 °F 73.4 °F 29.92 in Calm     89% 0.00 in 0.00 W/m2
02:04 76.9 °F 73.7 °F 29.92 in Calm     90% 0.00 in 0.00 W/m2
02:09 77.0 °F 73.5 °F 29.92 in Calm     89% 0.00 in 0.00 W/m2
02:14 77.0 °F 73.5 °F 29.92 in Calm     89% 0.00 in 0.00 W/m2
02:19 77.1 °F 73.6 °F 29.92 in Calm     89% 0.00 in 0.00 W/m2
02:24 77.1 °F 73.6 °F 29.92 in Calm     89% 0.00 in 0.00 W/m2
02:29 77.2 °F 73.7 °F 29.92 in Calm     89% 0.00 in 0.00 W/m2
02:34 77.2 °F 73.7 °F 29.92 in Calm     89% 0.00 in 0.00 W/m2
02:39 77.2 °F 73.7 °F 29.92 in Calm     89% 0.00 in 0.00 W/m2
02:44 77.4 °F 73.9 °F 29.92 in Calm     89% 0.00 in 0.00 W/m2
02:49 77.7 °F 74.2 °F 29.92 in Calm     89% 0.00 in 0.00 W/m2
02:54 77.8 °F 74.3 °F 29.92 in Calm     89% 0.00 in 0.00 W/m2
02:59 77.8 °F 74.3 °F 29.91 in Calm     89% 0.00 in 0.00 W/m2
03:04 77.6 °F 74.1 °F 29.91 in Calm     89% 0.00 in 0.00 W/m2
03:09 77.3 °F 73.8 °F 29.91 in Calm     89% 0.00 in 0.00 W/m2
03:14 77.3 °F 73.8 °F 29.91 in Calm     89% 0.00 in 0.00 W/m2
03:19 77.1 °F 73.6 °F 29.91 in Calm     89% 0.00 in 0.00 W/m2
03:24 77.0 °F 73.8 °F 29.91 in Calm     90% 0.00 in 0.00 W/m2
03:29 76.9 °F 73.7 °F 29.91 in Calm     90% 0.00 in 0.00 W/m2
03:34 76.9 °F 73.7 °F 29.90 in Calm     90% 0.00 in 0.00 W/m2
03:39 76.8 °F 73.6 °F 29.90 in Calm     90% 0.00 in 0.00 W/m2
03:44 76.7 °F 73.5 °F 29.91 in Calm     90% 0.00 in 0.00 W/m2
03:49 76.4 °F 73.2 °F 29.91 in Calm     90% 0.00 in 0.00 W/m2
03:54 76.3 °F 73.5 °F 29.90 in Calm     91% 0.00 in 0.00 W/m2
03:59 76.4 °F 73.6 °F 29.90 in Calm     91% 0.00 in 0.00 W/m2
04:04 76.4 °F 73.6 °F 29.90 in Calm     91% 0.00 in 0.00 W/m2
04:09 76.2 °F 73.4 °F 29.90 in Calm     91% 0.00 in 0.00 W/m2
04:14 76.0 °F 73.2 °F 29.90 in Calm     91% 0.00 in 0.00 W/m2
04:19 76.0 °F 73.2 °F 29.91 in Calm     91% 0.00 in 0.00 W/m2
04:24 76.1 °F 73.3 °F 29.91 in Calm     91% 0.00 in 0.00 W/m2
04:29 76.1 °F 73.3 °F 29.90 in Calm     91% 0.00 in 0.00 W/m2
04:34 76.2 °F 73.7 °F 29.90 in Calm     92% 0.00 in 0.00 W/m2
04:39 76.2 °F 73.7 °F 29.91 in Calm     92% 0.00 in 0.00 W/m2
04:44 76.0 °F 73.5 °F 29.91 in Calm     92% 0.00 in 0.00 W/m2
04:49 76.0 °F 73.5 °F 29.90 in Calm     92% 0.00 in 0.00 W/m2
04:54 75.8 °F 73.3 °F 29.90 in Calm     92% 0.00 in 0.00 W/m2
04:59 75.7 °F 73.2 °F 29.90 in Calm     92% 0.00 in 0.00 W/m2
05:04 75.7 °F 73.2 °F 29.90 in Calm     92% 0.00 in 0.00 W/m2
05:09 75.5 °F 73.0 °F 29.90 in Calm     92% 0.00 in 0.00 W/m2
05:14 75.5 °F 73.0 °F 29.90 in Calm     92% 0.00 in 0.00 W/m2
05:19 75.5 °F 73.0 °F 29.90 in Calm     92% 0.00 in 0.00 W/m2
05:24 75.5 °F 73.0 °F 29.90 in Calm     92% 0.00 in 0.00 W/m2
05:29 75.5 °F 73.0 °F 29.90 in Calm     92% 0.00 in 0.00 W/m2
05:34 75.3 °F 72.8 °F 29.91 in Calm     92% 0.00 in 0.00 W/m2
05:39 75.4 °F 73.2 °F 29.91 in Calm     93% 0.00 in 0.00 W/m2
05:44 75.5 °F 73.3 °F 29.91 in Calm     93% 0.00 in 0.00 W/m2
05:49 75.5 °F 73.3 °F 29.91 in Calm     93% 0.00 in 0.00 W/m2
05:54 75.7 °F 73.5 °F 29.91 in Calm     93% 0.00 in 0.00 W/m2
05:59 75.7 °F 73.5 °F 29.91 in Calm     93% 0.00 in 0.00 W/m2
06:04 75.6 °F 73.4 °F 29.91 in Calm     93% 0.00 in 0.00 W/m2
06:09 75.4 °F 73.2 °F 29.91 in Calm     93% 0.00 in 0.00 W/m2
06:14 75.3 °F 73.1 °F 29.91 in Calm     93% 0.00 in 0.00 W/m2
06:19 75.4 °F 73.2 °F 29.92 in Calm     93% 0.00 in 0.00 W/m2
Juneau County Weather
Compliments of Weather Underground - 2 mb